McHenry, MD (21541)

4:24 PM EST on January 30, 2015 (GMT -0500)
Greenscapes (McHenry) | Change Station
CLOSE
Current Station
Personal Weather Station
Location: Friendsville, MD
Elevation: 2638 ft
Nearby Weather Stations

Elev 2638 ft 39.57 °N, 79.37 °W | Updated 5 seconds ago

Overcast
Overcast
11.7 °F
Feels Like -3 °F
N
12.1
Wind Variable Wind from WNW
Gusts 26.0 mph

Today
High -- | Low -- °F
--% Chance of Precip.
Yesterday
High -- | Low -- °F
Precip. -- in
7:27 AM 5:35 PM
Waxing Gibbous, 85% visible
Pressure 30.09 in
Visibility 1.2 miles
Clouds Mostly Cloudy 1400 ft
Overcast 2000 ft
Windchill -3 °F
Dew Point 9 °F
Humidity 87%
Rainfall 0.07 in
Snow Depth Not available.
UV 0 out of 12
Pollen .10 out of 12
Air Quality Not available.
Flu Activity Not available.
METAR K2G4 302110Z AUTO 29011G19KT 1 1/4SM BR BKN014 OVC020 M11/M11 A3009 RMK AO1

More Conditions Fewer Conditions

Pressure 30.09 in
Visibility 1.2 miles
Clouds Mostly Cloudy 1400 ft
Overcast 2000 ft
Windchill -3 °F
Dew Point 9 °F
Humidity 87%
Rainfall 0.07 in
Snow Depth Not available.
UV 0 out of 12
Pollen .10 out of 12
Air Quality Not available.
Flu Activity Not available.
METAR K2G4 302110Z AUTO 29011G19KT 1 1/4SM BR BKN014 OVC020 M11/M11 A3009 RMK AO1

More Conditions Fewer Conditions

10-Day Weather Forecast

Almanac

Astronomy

Jan. 30, 2015 Rise Set
Actual Time
Civil Twilight
Nautical Twilight
Astronomical Twilight
Moon
Length of Visible Light
Length of Day
Tomorrow will be .
, % of the Moon is Illuminated

Today's Extremes

State Highs State Lows

Community

WunderPhotos

Upload Photos

1,791,895 photos uploaded!

WunderBlogs® & News

Nearby

Air Quality

  Air Quality AQ Index Pollutant
Not available.

Snow Depth

Station Depth Elevation

Earthquake Activity

City Distance Mag. Time & Date
Minimum magnitude displayed is 2.5.

Coastal Water Temperatures

Place Temperature

Nearby Weather Stations